Terminal Aerodrome Forecast
Issued by NWS Albany, NY

Home | Current Version | Previous Version | Text Only | Print | Product List | Glossary On
Versions: 1 2 3 4 5 6 7 8 9 10 11 12 13 14 15 16 17 18 19 20 21 22 23 24
000
FTUS41 KALY 202355 CCA
TAFALB
TAF COR
KALB 202355Z 2100/2124 27009KT P6SM VCSH BKN035
      TEMPO 2100/2103 BKN025
     FM210300 19006KT P6SM SCT050
     FM211500 18013G22KT P6SM SKC=

USA.gov is the U.S. government's official web portal to all federal, state and local government web resources and services.